createdAt,value
2019-06-20T00:01:43.628Z,6.40
2019-06-20T00:04:12.106Z,6.87
2019-06-20T00:06:40.691Z,7.10
2019-06-20T00:09:09.153Z,6.77
2019-06-20T00:11:37.753Z,7.20
2019-06-20T00:14:06.206Z,7.43
2019-06-20T00:16:34.796Z,6.97
2019-06-20T00:19:03.658Z,6.87
2019-06-20T00:21:32.282Z,6.43
2019-06-20T00:24:00.769Z,7.10
2019-06-20T00:26:29.249Z,7.30
2019-06-20T00:28:57.729Z,7.17
2019-06-20T00:31:26.094Z,6.97
2019-06-20T00:33:54.568Z,7.00
2019-06-20T00:36:23.051Z,7.23
2019-06-20T00:38:51.753Z,7.10
2019-06-20T00:41:20.218Z,7.10
2019-06-20T00:43:48.719Z,7.13
2019-06-20T00:46:17.253Z,7.40
2019-06-20T00:48:45.822Z,7.50
2019-06-20T00:51:14.393Z,7.03
2019-06-20T00:53:42.947Z,7.37
2019-06-20T00:56:11.524Z,7.00
2019-06-20T00:58:39.983Z,7.60
2019-06-20T01:01:08.468Z,7.43
2019-06-20T01:03:37.154Z,6.57
2019-06-20T01:06:05.722Z,7.57
2019-06-20T01:08:34.176Z,6.83
2019-06-20T01:11:02.781Z,7.33
2019-06-20T01:13:33.928Z,6.93
2019-06-20T01:16:01.738Z,6.90
2019-06-20T01:18:30.337Z,7.43
2019-06-20T01:20:59.081Z,7.23
2019-06-20T01:23:27.560Z,7.00
2019-06-20T01:25:56.032Z,6.97
2019-06-20T01:28:24.497Z,6.60
2019-06-20T01:30:53.061Z,6.93
2019-06-20T01:33:21.637Z,6.73
2019-06-20T01:35:50.205Z,6.70
2019-06-20T01:38:18.685Z,7.53
2019-06-20T01:40:47.136Z,7.50
2019-06-20T01:43:15.615Z,7.33
2019-06-20T01:45:44.068Z,7.33
2019-06-20T01:48:12.541Z,8.03
2019-06-20T01:50:41.146Z,7.10
2019-06-20T01:53:09.625Z,7.20
2019-06-20T01:55:38.098Z,6.87
2019-06-20T01:58:06.684Z,6.97
2019-06-20T02:00:45.131Z,7.83
2019-06-20T02:03:14.937Z,7.53
2019-06-20T02:05:43.911Z,7.27
2019-06-20T02:08:12.782Z,7.40
2019-06-20T02:10:41.452Z,7.50
2019-06-20T02:13:09.935Z,7.77
2019-06-20T02:15:38.495Z,7.63
2019-06-20T02:18:06.971Z,7.73
2019-06-20T02:20:37.331Z,7.23
2019-06-20T02:23:06.139Z,7.50
2019-06-20T02:25:34.815Z,7.40
2019-06-20T02:28:03.458Z,7.53
2019-06-20T02:30:32.033Z,7.20
2019-06-20T02:33:00.589Z,7.93
2019-06-20T02:35:29.148Z,7.27
2019-06-20T02:37:57.658Z,7.00
2019-06-20T02:40:26.125Z,7.20
2019-06-20T02:42:54.591Z,7.33
2019-06-20T02:45:23.278Z,6.73
2019-06-20T02:47:51.885Z,7.00
2019-06-20T02:50:21.355Z,7.20
2019-06-20T02:52:49.939Z,7.77
2019-06-20T02:55:18.635Z,7.27
2019-06-20T02:57:47.197Z,7.23
2019-06-20T03:00:21.938Z,7.17
2019-06-20T03:02:50.422Z,7.93
2019-06-20T03:05:18.898Z,7.67
2019-06-20T03:07:47.468Z,7.53
2019-06-20T03:10:15.963Z,7.40
2019-06-20T03:12:44.543Z,7.67
2019-06-20T03:15:13.216Z,7.13
2019-06-20T03:17:41.761Z,7.90
2019-06-20T03:20:10.398Z,7.80
2019-06-20T03:22:39.031Z,8.00
2019-06-20T03:25:08.020Z,7.50
2019-06-20T03:27:36.588Z,7.70
2019-06-20T03:30:05.480Z,7.80
2019-06-20T03:32:33.966Z,7.60
2019-06-20T03:35:03.078Z,8.07
2019-06-20T03:37:31.648Z,7.70
2019-06-20T03:40:00.120Z,8.50
2019-06-20T03:42:28.584Z,8.27
2019-06-20T03:45:02.243Z,8.60
2019-06-20T03:47:27.331Z,9.07
2019-06-20T03:49:55.794Z,10.63
2019-06-20T03:52:24.326Z,9.63
2019-06-20T03:54:52.753Z,8.77
2019-06-20T03:57:21.118Z,9.23
2019-06-20T03:59:49.676Z,9.30
2019-06-20T04:02:18.034Z,9.07
2019-06-20T04:04:46.403Z,9.27
2019-06-20T04:07:14.985Z,9.23
2019-06-20T04:09:43.546Z,9.23
2019-06-20T04:12:12.012Z,9.60
2019-06-20T04:14:40.611Z,9.80
2019-06-20T04:17:09.172Z,9.93
2019-06-20T04:19:37.541Z,8.87
2019-06-20T04:22:06.018Z,9.33
2019-06-20T04:24:34.475Z,10.10
2019-06-20T04:27:03.176Z,9.50
2019-06-20T04:29:31.750Z,10.07
2019-06-20T04:32:00.110Z,10.10
2019-06-20T04:34:28.598Z,9.97
2019-06-20T04:36:57.207Z,9.00
2019-06-20T04:39:25.784Z,8.73
2019-06-20T04:41:54.258Z,9.53
2019-06-20T04:44:22.826Z,9.47
2019-06-20T04:46:56.969Z,9.13
2019-06-20T04:49:25.441Z,8.97
2019-06-20T04:51:53.894Z,8.43
2019-06-20T04:54:22.273Z,9.10
2019-06-20T04:56:50.729Z,8.67
2019-06-20T04:59:19.404Z,8.83
2019-06-20T05:01:47.971Z,8.40
2019-06-20T05:04:16.432Z,8.90
2019-06-20T05:06:48.822Z,9.47
2019-06-20T05:09:17.303Z,9.13
2019-06-20T05:11:45.738Z,8.97
2019-06-20T05:14:14.229Z,9.23
2019-06-20T05:16:42.719Z,8.93
2019-06-20T05:19:11.300Z,8.50
2019-06-20T05:21:39.769Z,8.03
2019-06-20T05:24:08.229Z,10.27
2019-06-20T05:26:36.807Z,11.03
2019-06-20T05:29:05.632Z,11.90
2019-06-20T05:31:34.189Z,10.47
2019-06-20T05:34:02.718Z,10.83
2019-06-20T05:36:31.311Z,9.77
2019-06-20T05:38:59.801Z,9.53
2019-06-20T05:41:28.357Z,10.13
2019-06-20T05:43:56.977Z,10.17
2019-06-20T05:46:25.458Z,9.37
2019-06-20T05:48:54.038Z,8.97
2019-06-20T05:51:22.619Z,9.17
2019-06-20T05:53:51.090Z,9.10
2019-06-20T05:56:19.564Z,8.77
2019-06-20T05:58:47.945Z,9.00
2019-06-20T06:01:16.551Z,8.73
2019-06-20T06:03:45.134Z,9.40
2019-06-20T06:06:13.695Z,9.40
2019-06-20T06:08:42.271Z,8.20
2019-06-20T06:11:10.847Z,9.30
2019-06-20T06:13:39.412Z,8.80
2019-06-20T06:16:07.935Z,9.00
2019-06-20T06:18:36.520Z,8.67
2019-06-20T06:21:05.271Z,8.03
2019-06-20T06:23:33.883Z,8.63
2019-06-20T06:26:02.513Z,8.67
2019-06-20T06:28:30.989Z,9.20
2019-06-20T06:30:59.581Z,8.27
2019-06-20T06:33:28.060Z,8.13
2019-06-20T06:35:56.452Z,8.50
2019-06-20T06:38:25.045Z,7.83
2019-06-20T06:40:54.328Z,8.10
2019-06-20T06:43:22.949Z,7.60
2019-06-20T06:45:51.459Z,7.67
2019-06-20T06:48:20.026Z,7.90
2019-06-20T06:50:48.622Z,7.37
2019-06-20T06:53:17.227Z,7.60
2019-06-20T06:55:45.691Z,8.07
2019-06-20T06:58:14.347Z,8.10
2019-06-20T07:00:42.821Z,8.93
2019-06-20T07:03:11.506Z,8.20
2019-06-20T07:05:39.879Z,8.33
2019-06-20T07:08:08.437Z,8.70
2019-06-20T07:10:37.033Z,7.73
2019-06-20T07:13:05.798Z,8.17
2019-06-20T07:15:34.485Z,7.80
2019-06-20T07:18:03.187Z,7.73
2019-06-20T07:20:31.678Z,7.87
2019-06-20T07:23:00.184Z,8.07
2019-06-20T07:25:28.547Z,7.07
2019-06-20T07:27:57.144Z,8.87
2019-06-20T07:30:25.864Z,8.13
2019-06-20T07:32:54.410Z,7.30
2019-06-20T07:35:22.796Z,7.63
2019-06-20T07:37:51.427Z,7.53
2019-06-20T07:40:20.082Z,7.03
2019-06-20T07:42:49.030Z,7.70
2019-06-20T07:45:27.121Z,7.80
2019-06-20T07:47:54.941Z,8.27
2019-06-20T07:50:23.641Z,7.27
2019-06-20T07:53:01.914Z,7.80
2019-06-20T07:55:22.892Z,7.87
2019-06-20T07:57:51.554Z,7.93
2019-06-20T08:00:20.366Z,7.47
2019-06-20T08:02:48.837Z,8.30
2019-06-20T08:05:17.704Z,7.40
2019-06-20T08:07:46.170Z,7.60
2019-06-20T08:10:15.769Z,8.37
2019-06-20T08:12:44.242Z,7.27
2019-06-20T08:15:15.678Z,7.27
2019-06-20T08:17:44.082Z,7.50
2019-06-20T08:20:12.883Z,7.83
2019-06-20T08:22:41.360Z,6.90
2019-06-20T08:25:10.660Z,7.70
2019-06-20T08:27:51.212Z,7.17
2019-06-20T08:30:24.551Z,7.40
2019-06-20T08:32:53.316Z,6.47
2019-06-20T08:35:23.020Z,6.30
2019-06-20T08:37:52.661Z,6.57
2019-06-20T08:40:22.777Z,6.60
2019-06-20T08:42:51.531Z,7.77
2019-06-20T08:45:20.807Z,7.90
2019-06-20T08:47:49.268Z,6.30
2019-06-20T08:50:18.196Z,5.70
2019-06-20T08:52:46.690Z,6.33
2019-06-20T08:55:15.476Z,6.47
2019-06-20T08:57:44.038Z,6.53
2019-06-20T09:00:12.884Z,5.40
2019-06-20T09:02:41.361Z,5.30
2019-06-20T09:05:11.053Z,5.80
2019-06-20T09:07:41.771Z,6.13
2019-06-20T09:10:11.137Z,5.67
2019-06-20T09:12:39.622Z,6.23
2019-06-20T09:15:08.915Z,5.90
2019-06-20T09:17:37.414Z,5.30
2019-06-20T09:20:06.717Z,5.57
2019-06-20T09:22:35.207Z,4.50
2019-06-20T09:25:04.506Z,5.43
2019-06-20T09:27:33.158Z,4.90
2019-06-20T09:30:03.498Z,5.63
2019-06-20T09:32:32.523Z,5.10
2019-06-20T09:35:02.975Z,5.90
2019-06-20T09:37:31.904Z,4.90
2019-06-20T09:40:08.029Z,4.30
2019-06-20T09:42:38.756Z,4.40
2019-06-20T09:45:11.001Z,5.20
2019-06-20T09:47:45.156Z,5.20
2019-06-20T09:50:16.457Z,4.50
2019-06-20T09:52:45.050Z,5.07
2019-06-20T09:55:15.624Z,4.63
2019-06-20T09:57:52.112Z,5.20
2019-06-20T10:00:23.257Z,4.33
2019-06-20T10:02:57.787Z,5.00
2019-06-20T10:05:29.257Z,4.80
2019-06-20T10:07:58.942Z,4.67
2019-06-20T10:10:29.962Z,4.43
2019-06-20T10:13:08.424Z,4.70
2019-06-20T10:15:40.191Z,4.30
2019-06-20T10:18:18.007Z,4.23
2019-06-20T10:20:48.834Z,4.47
2019-06-20T10:23:24.533Z,4.50
2019-06-20T10:25:53.684Z,4.77
2019-06-20T10:28:23.673Z,4.70
2019-06-20T10:30:53.414Z,4.50
2019-06-20T10:33:32.077Z,4.53
2019-06-20T10:36:00.571Z,4.77
2019-06-20T10:38:29.195Z,4.27
2019-06-20T10:41:08.444Z,5.00
2019-06-20T10:43:36.979Z,4.47
2019-06-20T10:46:05.970Z,4.70
2019-06-20T10:48:35.770Z,4.47
2019-06-20T10:51:25.546Z,4.60
2019-06-20T10:53:56.252Z,4.50
2019-06-20T10:56:27.607Z,4.97
2019-06-20T10:58:57.922Z,4.70
2019-06-20T11:01:31.994Z,5.33
2019-06-20T11:04:03.707Z,4.67
2019-06-20T11:06:39.900Z,4.70
2019-06-20T11:09:09.538Z,4.87
2019-06-20T11:11:38.387Z,4.30
2019-06-20T11:14:19.761Z,4.53
2019-06-20T11:16:56.158Z,4.10
2019-06-20T11:19:24.711Z,4.43
2019-06-20T11:21:53.336Z,4.60
2019-06-20T11:24:22.033Z,4.57
2019-06-20T11:26:50.689Z,4.40
2019-06-20T11:29:19.667Z,4.53
2019-06-20T11:31:49.609Z,4.80
2019-06-20T11:34:18.468Z,5.50
2019-06-20T11:36:47.040Z,5.00
2019-06-20T11:39:15.652Z,5.20
2019-06-20T11:41:44.171Z,4.60
2019-06-20T11:44:12.791Z,5.00
2019-06-20T11:46:42.615Z,4.43
2019-06-20T11:49:11.257Z,4.90
2019-06-20T11:51:40.041Z,4.20
2019-06-20T11:54:08.736Z,4.80
2019-06-20T11:56:37.203Z,4.67
2019-06-20T11:59:05.756Z,5.20
2019-06-20T12:01:34.426Z,5.00
2019-06-20T12:04:03.023Z,5.10
2019-06-20T12:06:31.650Z,4.20
2019-06-20T12:09:02.965Z,4.63
2019-06-20T12:11:31.821Z,4.77
2019-06-20T12:14:00.304Z,4.77
2019-06-20T12:16:28.883Z,5.10
2019-06-20T12:18:57.431Z,4.30
2019-06-20T12:21:25.810Z,4.70
2019-06-20T12:23:54.385Z,4.73
2019-06-20T12:26:22.975Z,4.67
2019-06-20T12:28:51.560Z,5.13
2019-06-20T12:31:20.151Z,4.50
2019-06-20T12:33:49.560Z,4.90
2019-06-20T12:36:18.219Z,4.80
2019-06-20T12:38:48.257Z,4.83
2019-06-20T12:41:16.986Z,5.20
2019-06-20T12:43:46.354Z,4.30
2019-06-20T12:46:15.031Z,4.63
2019-06-20T12:48:45.008Z,5.20
2019-06-20T12:51:13.769Z,5.23
2019-06-20T12:53:42.345Z,5.40
2019-06-20T12:56:10.953Z,5.00
2019-06-20T12:58:40.748Z,4.77
2019-06-20T13:01:10.213Z,5.20
2019-06-20T13:03:40.433Z,4.93
2019-06-20T13:06:09.027Z,8.67
2019-06-20T13:08:39.023Z,6.53
2019-06-20T13:11:08.178Z,11.47
2019-06-20T13:13:38.785Z,7.60
2019-06-20T13:16:07.487Z,10.00
2019-06-20T13:18:36.081Z,9.90
2019-06-20T13:21:04.868Z,7.53
2019-06-20T13:23:33.445Z,6.70
2019-06-20T13:26:02.207Z,7.83
2019-06-20T13:28:31.073Z,6.67
2019-06-20T13:30:59.813Z,6.37
2019-06-20T13:33:28.592Z,7.57
2019-06-20T13:35:57.474Z,6.83
2019-06-20T13:38:25.942Z,5.77
2019-06-20T13:40:54.439Z,5.77
2019-06-20T13:43:22.898Z,6.00
2019-06-20T13:45:52.172Z,5.73
2019-06-20T13:48:21.466Z,6.33
2019-06-20T13:50:50.243Z,6.53
2019-06-20T13:53:18.844Z,6.67
2019-06-20T13:55:47.727Z,6.90
2019-06-20T13:58:16.354Z,6.73
2019-06-20T14:00:45.579Z,6.73
2019-06-20T14:03:14.216Z,6.77
2019-06-20T14:05:42.902Z,6.40
2019-06-20T14:08:11.615Z,6.60
2019-06-20T14:10:40.267Z,5.80
2019-06-20T14:13:18.656Z,5.90
2019-06-20T14:15:39.417Z,6.30
2019-06-20T14:18:07.887Z,6.60
2019-06-20T14:20:36.878Z,7.57
2019-06-20T14:23:05.509Z,6.33
2019-06-20T14:25:34.401Z,6.97
2019-06-20T14:28:02.925Z,6.57
2019-06-20T14:30:31.895Z,6.10
2019-06-20T14:33:00.501Z,6.20
2019-06-20T14:35:29.069Z,6.83
2019-06-20T14:37:58.456Z,6.40
2019-06-20T14:40:26.930Z,31.20
2019-06-20T14:42:55.684Z,9.20
2019-06-20T14:45:24.451Z,7.83
2019-06-20T14:47:53.263Z,6.93
2019-06-20T14:50:22.861Z,6.73
2019-06-20T14:52:52.240Z,6.30
2019-06-20T14:55:21.050Z,6.00
2019-06-20T14:57:50.440Z,5.90
2019-06-20T15:00:20.287Z,6.80
2019-06-20T15:02:53.144Z,5.83
2019-06-20T15:05:20.225Z,5.20
2019-06-20T15:07:49.628Z,5.70
2019-06-20T15:10:20.190Z,6.13
2019-06-20T15:12:50.281Z,6.27
2019-06-20T15:15:20.050Z,6.33
2019-06-20T15:17:50.264Z,6.53
2019-06-20T15:20:19.425Z,6.13
2019-06-20T15:22:49.254Z,6.13
2019-06-20T15:25:18.673Z,6.90
2019-06-20T15:27:49.597Z,6.27
2019-06-20T15:30:18.260Z,6.43
2019-06-20T15:32:59.007Z,5.77
2019-06-20T15:35:17.506Z,5.53
2019-06-20T15:37:46.676Z,5.27
2019-06-20T15:40:16.561Z,5.60
2019-06-20T15:42:45.423Z,6.03
2019-06-20T15:45:16.995Z,5.20
2019-06-20T15:47:45.768Z,5.60
2019-06-20T15:50:15.052Z,5.27
2019-06-20T15:52:43.537Z,5.13
2019-06-20T15:55:12.885Z,4.70
2019-06-20T15:57:42.010Z,5.03
2019-06-20T16:00:11.399Z,5.57
2019-06-20T16:02:40.163Z,4.93
2019-06-20T16:05:10.067Z,4.87
2019-06-20T16:07:38.918Z,5.40
2019-06-20T16:10:07.858Z,5.53
2019-06-20T16:12:36.516Z,6.27
2019-06-20T16:15:06.489Z,5.47
2019-06-20T16:17:35.079Z,4.97
2019-06-20T16:20:04.439Z,4.93
2019-06-20T16:22:33.219Z,4.77
2019-06-20T16:25:02.413Z,5.40
2019-06-20T16:27:30.963Z,4.80
2019-06-20T16:29:59.655Z,5.20
2019-06-20T16:32:28.229Z,4.70
2019-06-20T16:34:56.597Z,4.83
2019-06-20T16:37:25.079Z,4.83
2019-06-20T16:39:53.879Z,4.80
2019-06-20T16:42:22.596Z,4.63
2019-06-20T16:44:51.494Z,5.57
2019-06-20T16:47:20.174Z,6.03
2019-06-20T16:49:48.862Z,5.17
2019-06-20T16:52:17.483Z,5.00
2019-06-20T16:54:45.951Z,4.87
2019-06-20T16:57:14.520Z,4.77
2019-06-20T16:59:43.394Z,4.87
2019-06-20T17:02:11.996Z,5.10
2019-06-20T17:04:40.664Z,6.03
2019-06-20T17:07:09.241Z,5.53
2019-06-20T17:09:37.909Z,5.40
2019-06-20T17:12:06.487Z,5.67
2019-06-20T17:14:35.061Z,5.63
2019-06-20T17:17:03.745Z,5.80
2019-06-20T17:19:32.401Z,7.50
2019-06-20T17:22:00.867Z,6.63
2019-06-20T17:24:29.440Z,7.10
2019-06-20T17:26:58.617Z,7.83
2019-06-20T17:29:27.217Z,8.10
2019-06-20T17:31:57.492Z,7.60
2019-06-20T17:34:26.281Z,6.30
2019-06-20T17:36:54.855Z,8.47
2019-06-20T17:39:23.336Z,7.97
2019-06-20T17:41:55.488Z,7.70
2019-06-20T17:44:22.526Z,7.63
2019-06-20T17:46:51.035Z,7.63
2019-06-20T17:49:19.413Z,7.43
2019-06-20T17:51:47.980Z,7.60
2019-06-20T17:54:16.553Z,8.00
2019-06-20T17:56:45.038Z,7.70
2019-06-20T17:59:13.547Z,7.30
2019-06-20T18:01:42.118Z,7.70
2019-06-20T18:04:13.979Z,6.43
2019-06-20T18:06:41.021Z,6.70
2019-06-20T18:09:09.695Z,7.13
2019-06-20T18:11:38.256Z,7.57
2019-06-20T18:14:06.657Z,7.73
2019-06-20T18:16:35.117Z,7.70
2019-06-20T18:19:03.916Z,7.60
2019-06-20T18:21:32.625Z,7.03
2019-06-20T18:24:01.108Z,7.60
2019-06-20T18:26:29.808Z,6.63
2019-06-20T18:28:58.492Z,7.37
2019-06-20T18:31:27.453Z,6.97
2019-06-20T18:33:56.255Z,7.43
2019-06-20T18:36:24.811Z,7.40
2019-06-20T18:38:53.284Z,6.53
2019-06-20T18:41:22.095Z,6.83
2019-06-20T18:43:50.788Z,6.40
2019-06-20T18:46:19.364Z,6.43
2019-06-20T18:48:47.956Z,6.47
2019-06-20T18:51:16.444Z,6.40
2019-06-20T18:53:44.832Z,6.17
2019-06-20T18:56:13.390Z,6.80
2019-06-20T18:58:41.821Z,6.97
2019-06-20T19:01:10.407Z,6.33
2019-06-20T19:03:38.994Z,8.50
2019-06-20T19:06:07.646Z,6.93
2019-06-20T19:08:36.224Z,6.77
2019-06-20T19:11:05.402Z,7.30
2019-06-20T19:13:34.122Z,6.57
2019-06-20T19:16:02.596Z,6.57
2019-06-20T19:18:31.215Z,6.77
2019-06-20T19:20:59.704Z,6.80
2019-06-20T19:23:28.979Z,6.37
2019-06-20T19:25:57.571Z,6.03
2019-06-20T19:28:26.714Z,6.27
2019-06-20T19:30:55.789Z,7.23
2019-06-20T19:33:24.662Z,6.87
2019-06-20T19:35:53.173Z,6.73
2019-06-20T19:38:21.647Z,6.13
2019-06-20T19:40:50.748Z,6.67
2019-06-20T19:43:19.443Z,6.43
2019-06-20T19:45:48.117Z,6.63
2019-06-20T19:48:16.797Z,6.60
2019-06-20T19:50:45.374Z,6.37
2019-06-20T19:53:13.972Z,6.70
2019-06-20T19:55:42.435Z,6.83
2019-06-20T19:58:11.333Z,6.40
2019-06-20T20:00:39.735Z,6.80
2019-06-20T20:03:08.494Z,6.00
2019-06-20T20:05:37.135Z,6.33
2019-06-20T20:08:05.882Z,6.40
2019-06-20T20:10:43.157Z,6.17
2019-06-20T20:13:14.483Z,5.70
2019-06-20T20:15:42.769Z,6.67
2019-06-20T20:18:11.496Z,5.63
2019-06-20T20:20:40.008Z,6.27
2019-06-20T20:23:08.592Z,5.87
2019-06-20T20:25:37.130Z,5.60
2019-06-20T20:28:05.900Z,5.83
2019-06-20T20:30:34.579Z,6.07
2019-06-20T20:33:03.510Z,6.10
2019-06-20T20:35:35.894Z,5.40
2019-06-20T20:38:02.689Z,6.47
2019-06-20T20:40:31.198Z,5.97
2019-06-20T20:42:59.731Z,5.23
2019-06-20T20:45:28.313Z,6.07
2019-06-20T20:47:56.820Z,6.17
2019-06-20T20:50:25.393Z,5.20
2019-06-20T20:52:53.967Z,5.27
2019-06-20T20:55:23.119Z,5.70
2019-06-20T20:57:51.678Z,5.57
2019-06-20T21:00:25.520Z,5.50
2019-06-20T21:02:54.505Z,5.80
2019-06-20T21:05:23.271Z,5.13
2019-06-20T21:07:51.838Z,5.60
2019-06-20T21:10:20.665Z,6.07
2019-06-20T21:12:49.132Z,7.83
2019-06-20T21:15:18.201Z,6.87
2019-06-20T21:17:46.919Z,5.63
2019-06-20T21:20:17.097Z,9.03
2019-06-20T21:22:45.656Z,6.00
2019-06-20T21:25:14.433Z,5.53
2019-06-20T21:27:42.914Z,6.07
2019-06-20T21:30:12.190Z,5.87
2019-06-20T21:32:40.923Z,5.50
2019-06-20T21:35:11.384Z,5.63
2019-06-20T21:37:40.056Z,5.23
2019-06-20T21:40:09.740Z,5.87
2019-06-20T21:42:38.610Z,5.40
2019-06-20T21:45:08.178Z,5.33
2019-06-20T21:47:36.857Z,5.73
2019-06-20T21:50:05.845Z,5.27
2019-06-20T21:52:34.438Z,5.30
2019-06-20T21:55:03.484Z,5.40
2019-06-20T21:57:32.238Z,5.23
2019-06-20T22:00:00.812Z,5.20
2019-06-20T22:02:29.404Z,5.30
2019-06-20T22:04:57.992Z,5.00
2019-06-20T22:07:26.716Z,5.37
2019-06-20T22:09:55.371Z,5.00
2019-06-20T22:12:23.844Z,5.10
2019-06-20T22:14:52.516Z,4.70
2019-06-20T22:17:20.985Z,5.07
2019-06-20T22:19:49.434Z,4.77
2019-06-20T22:22:18.025Z,5.20
2019-06-20T22:24:46.481Z,5.00
2019-06-20T22:27:14.961Z,4.77
2019-06-20T22:29:43.472Z,4.83
2019-06-20T22:32:11.996Z,4.90
2019-06-20T22:34:40.438Z,5.20
2019-06-20T22:37:08.903Z,5.60
2019-06-20T22:39:37.270Z,5.10
2019-06-20T22:42:05.721Z,4.97
2019-06-20T22:44:34.199Z,5.57
2019-06-20T22:47:03.657Z,5.40
2019-06-20T22:49:32.233Z,4.80
2019-06-20T22:52:00.805Z,5.10
2019-06-20T22:54:29.505Z,4.67
2019-06-20T22:56:57.958Z,5.00
2019-06-20T22:59:26.420Z,5.03
2019-06-20T23:01:54.927Z,5.20
2019-06-20T23:04:23.380Z,5.43
2019-06-20T23:06:56.437Z,5.70
2019-06-20T23:09:22.519Z,5.43
2019-06-20T23:11:51.147Z,5.33
2019-06-20T23:14:19.791Z,5.70
2019-06-20T23:16:48.318Z,5.47
2019-06-20T23:19:16.817Z,5.40
2019-06-20T23:21:45.378Z,5.20
2019-06-20T23:24:14.338Z,4.83
2019-06-20T23:26:42.828Z,4.73
2019-06-20T23:29:23.435Z,4.63
2019-06-20T23:31:53.475Z,5.13
2019-06-20T23:34:22.234Z,5.10
2019-06-20T23:36:50.794Z,5.30
2019-06-20T23:39:19.352Z,4.90
2019-06-20T23:41:47.807Z,4.90
2019-06-20T23:44:16.379Z,5.27
2019-06-20T23:46:45.242Z,5.30
2019-06-20T23:49:13.850Z,4.87
2019-06-20T23:51:50.801Z,4.80
2019-06-20T23:54:19.508Z,5.30
2019-06-20T23:56:48.033Z,5.13
2019-06-20T23:59:16.390Z,5.50
